sensor_id;sensor_type;location;lat;lon;timestamp;P1;durP1;ratioP1;P2;durP2;ratioP2
26696;SDS011;14312;52.614;13.496;2023-06-22T00:01:11;6.53;;;5.40;;
26696;SDS011;14312;52.614;13.496;2023-06-22T00:03:57;5.85;;;5.45;;
26696;SDS011;14312;52.614;13.496;2023-06-22T00:06:43;5.78;;;5.13;;
26696;SDS011;14312;52.614;13.496;2023-06-22T00:09:29;5.68;;;5.28;;
26696;SDS011;14312;52.614;13.496;2023-06-22T00:12:14;5.15;;;4.75;;
26696;SDS011;14312;52.614;13.496;2023-06-22T00:15:00;5.55;;;5.15;;
26696;SDS011;14312;52.614;13.496;2023-06-22T00:17:46;4.95;;;4.57;;
26696;SDS011;14312;52.614;13.496;2023-06-22T00:20:32;5.90;;;5.40;;
26696;SDS011;14312;52.614;13.496;2023-06-22T00:23:19;5.03;;;4.63;;
26696;SDS011;14312;52.614;13.496;2023-06-22T00:26:09;5.43;;;5.03;;
26696;SDS011;14312;52.614;13.496;2023-06-22T00:28:54;5.22;;;4.82;;
26696;SDS011;14312;52.614;13.496;2023-06-22T00:31:40;5.65;;;5.15;;
26696;SDS011;14312;52.614;13.496;2023-06-22T00:34:26;5.15;;;4.75;;
26696;SDS011;14312;52.614;13.496;2023-06-22T00:37:12;4.90;;;4.50;;
26696;SDS011;14312;52.614;13.496;2023-06-22T00:39:58;4.90;;;4.53;;
26696;SDS011;14312;52.614;13.496;2023-06-22T00:42:44;5.22;;;4.78;;
26696;SDS011;14312;52.614;13.496;2023-06-22T00:45:30;4.50;;;4.20;;
26696;SDS011;14312;52.614;13.496;2023-06-22T00:48:16;4.57;;;4.28;;
26696;SDS011;14312;52.614;13.496;2023-06-22T00:51:03;4.72;;;4.43;;
26696;SDS011;14312;52.614;13.496;2023-06-22T00:53:49;4.80;;;4.50;;
26696;SDS011;14312;52.614;13.496;2023-06-22T00:56:37;4.90;;;4.50;;
26696;SDS011;14312;52.614;13.496;2023-06-22T00:59:23;4.72;;;4.30;;
26696;SDS011;14312;52.614;13.496;2023-06-22T01:02:10;4.65;;;4.35;;
26696;SDS011;14312;52.614;13.496;2023-06-22T01:04:56;4.85;;;4.45;;
26696;SDS011;14312;52.614;13.496;2023-06-22T01:07:44;4.97;;;4.68;;
26696;SDS011;14312;52.614;13.496;2023-06-22T01:10:36;5.28;;;4.88;;
26696;SDS011;14312;52.614;13.496;2023-06-22T01:13:48;5.10;;;4.70;;
26696;SDS011;14312;52.614;13.496;2023-06-22T01:16:43;5.28;;;4.88;;
26696;SDS011;14312;52.614;13.496;2023-06-22T01:22:48;5.35;;;4.95;;
26696;SDS011;14312;52.614;13.496;2023-06-22T01:25:59;5.60;;;5.20;;
26696;SDS011;14312;52.614;13.496;2023-06-22T01:28:54;5.03;;;4.63;;
26696;SDS011;14312;52.614;13.496;2023-06-22T01:31:42;5.32;;;4.93;;
26696;SDS011;14312;52.614;13.496;2023-06-22T01:34:30;5.07;;;4.72;;
26696;SDS011;14312;52.614;13.496;2023-06-22T01:37:17;5.70;;;5.25;;
26696;SDS011;14312;52.614;13.496;2023-06-22T01:40:04;5.60;;;5.10;;
26696;SDS011;14312;52.614;13.496;2023-06-22T01:42:53;6.50;;;5.70;;
26696;SDS011;14312;52.614;13.496;2023-06-22T01:45:39;5.57;;;5.07;;
26696;SDS011;14312;52.614;13.496;2023-06-22T01:48:25;5.43;;;5.03;;
26696;SDS011;14312;52.614;13.496;2023-06-22T01:51:12;5.53;;;5.07;;
26696;SDS011;14312;52.614;13.496;2023-06-22T01:53:58;5.43;;;5.03;;
26696;SDS011;14312;52.614;13.496;2023-06-22T01:56:43;5.75;;;5.25;;
26696;SDS011;14312;52.614;13.496;2023-06-22T01:59:34;5.65;;;5.25;;
26696;SDS011;14312;52.614;13.496;2023-06-22T02:02:43;5.15;;;4.75;;
26696;SDS011;14312;52.614;13.496;2023-06-22T02:06:08;5.30;;;4.90;;
26696;SDS011;14312;52.614;13.496;2023-06-22T02:08:57;5.38;;;4.97;;
26696;SDS011;14312;52.614;13.496;2023-06-22T02:11:46;5.25;;;4.85;;
26696;SDS011;14312;52.614;13.496;2023-06-22T02:14:34;5.60;;;5.20;;
26696;SDS011;14312;52.614;13.496;2023-06-22T02:17:20;6.30;;;5.70;;
26696;SDS011;14312;52.614;13.496;2023-06-22T02:20:06;5.95;;;5.55;;
26696;SDS011;14312;52.614;13.496;2023-06-22T02:22:58;5.97;;;5.53;;
26696;SDS011;14312;52.614;13.496;2023-06-22T02:25:44;5.90;;;5.40;;
26696;SDS011;14312;52.614;13.496;2023-06-22T02:28:30;5.85;;;5.35;;
26696;SDS011;14312;52.614;13.496;2023-06-22T02:31:16;6.18;;;5.68;;
26696;SDS011;14312;52.614;13.496;2023-06-22T02:34:03;6.03;;;5.63;;
26696;SDS011;14312;52.614;13.496;2023-06-22T02:36:49;6.70;;;6.20;;
26696;SDS011;14312;52.614;13.496;2023-06-22T02:39:38;6.70;;;6.20;;
26696;SDS011;14312;52.614;13.496;2023-06-22T02:42:24;6.50;;;5.97;;
26696;SDS011;14312;52.614;13.496;2023-06-22T02:45:09;7.00;;;6.30;;
26696;SDS011;14312;52.614;13.496;2023-06-22T02:47:55;6.72;;;6.20;;
26696;SDS011;14312;52.614;13.496;2023-06-22T02:50:42;6.75;;;6.22;;
26696;SDS011;14312;52.614;13.496;2023-06-22T02:53:28;7.07;;;6.43;;
26696;SDS011;14312;52.614;13.496;2023-06-22T02:56:13;6.95;;;6.28;;
26696;SDS011;14312;52.614;13.496;2023-06-22T02:59:00;6.30;;;5.70;;
26696;SDS011;14312;52.614;13.496;2023-06-22T03:01:46;6.20;;;5.60;;
26696;SDS011;14312;52.614;13.496;2023-06-22T03:04:33;6.32;;;5.72;;
26696;SDS011;14312;52.614;13.496;2023-06-22T03:07:19;7.00;;;5.72;;
26696;SDS011;14312;52.614;13.496;2023-06-22T03:10:09;6.43;;;5.82;;
26696;SDS011;14312;52.614;13.496;2023-06-22T03:12:56;7.30;;;6.53;;
26696;SDS011;14312;52.614;13.496;2023-06-22T03:15:42;7.15;;;6.03;;
26696;SDS011;14312;52.614;13.496;2023-06-22T03:18:28;6.80;;;6.18;;
26696;SDS011;14312;52.614;13.496;2023-06-22T03:21:13;7.05;;;6.35;;
26696;SDS011;14312;52.614;13.496;2023-06-22T03:24:01;6.60;;;6.10;;
26696;SDS011;14312;52.614;13.496;2023-06-22T03:26:47;6.63;;;5.93;;
26696;SDS011;14312;52.614;13.496;2023-06-22T03:29:32;6.50;;;6.00;;
26696;SDS011;14312;52.614;13.496;2023-06-22T03:32:19;6.80;;;6.30;;
26696;SDS011;14312;52.614;13.496;2023-06-22T03:35:05;6.25;;;5.75;;
26696;SDS011;14312;52.614;13.496;2023-06-22T03:37:52;7.72;;;7.13;;
26696;SDS011;14312;52.614;13.496;2023-06-22T03:40:38;7.30;;;6.75;;
26696;SDS011;14312;52.614;13.496;2023-06-22T03:43:24;8.02;;;6.93;;
26696;SDS011;14312;52.614;13.496;2023-06-22T03:46:10;7.50;;;6.80;;
26696;SDS011;14312;52.614;13.496;2023-06-22T03:48:56;7.65;;;6.90;;
26696;SDS011;14312;52.614;13.496;2023-06-22T03:51:42;7.20;;;6.55;;
26696;SDS011;14312;52.614;13.496;2023-06-22T03:54:28;7.03;;;6.35;;
26696;SDS011;14312;52.614;13.496;2023-06-22T03:57:15;8.55;;;7.65;;
26696;SDS011;14312;52.614;13.496;2023-06-22T04:00:01;7.93;;;6.53;;
26696;SDS011;14312;52.614;13.496;2023-06-22T04:02:51;7.88;;;6.88;;
26696;SDS011;14312;52.614;13.496;2023-06-22T04:05:38;7.30;;;6.70;;
26696;SDS011;14312;52.614;13.496;2023-06-22T04:08:24;8.15;;;7.10;;
26696;SDS011;14312;52.614;13.496;2023-06-22T04:11:10;7.70;;;6.90;;
26696;SDS011;14312;52.614;13.496;2023-06-22T04:13:56;7.75;;;6.35;;
26696;SDS011;14312;52.614;13.496;2023-06-22T04:16:42;7.88;;;6.57;;
26696;SDS011;14312;52.614;13.496;2023-06-22T04:19:28;6.78;;;6.18;;
26696;SDS011;14312;52.614;13.496;2023-06-22T04:22:14;8.13;;;6.30;;
26696;SDS011;14312;52.614;13.496;2023-06-22T04:24:59;6.80;;;5.97;;
26696;SDS011;14312;52.614;13.496;2023-06-22T04:27:46;7.18;;;6.47;;
26696;SDS011;14312;52.614;13.496;2023-06-22T04:30:32;6.28;;;5.57;;
26696;SDS011;14312;52.614;13.496;2023-06-22T04:33:19;6.72;;;6.10;;
26696;SDS011;14312;52.614;13.496;2023-06-22T04:36:05;6.65;;;6.15;;
26696;SDS011;14312;52.614;13.496;2023-06-22T04:38:50;5.95;;;5.45;;
26696;SDS011;14312;52.614;13.496;2023-06-22T04:41:38;6.20;;;5.57;;
26696;SDS011;14312;52.614;13.496;2023-06-22T04:44:28;5.68;;;5.20;;
26696;SDS011;14312;52.614;13.496;2023-06-22T04:47:14;7.90;;;5.72;;
26696;SDS011;14312;52.614;13.496;2023-06-22T04:50:00;6.05;;;5.53;;
26696;SDS011;14312;52.614;13.496;2023-06-22T04:52:51;5.95;;;5.45;;
26696;SDS011;14312;52.614;13.496;2023-06-22T04:55:37;5.70;;;5.20;;
26696;SDS011;14312;52.614;13.496;2023-06-22T04:58:27;6.30;;;5.70;;
26696;SDS011;14312;52.614;13.496;2023-06-22T05:01:14;5.70;;;5.10;;
26696;SDS011;14312;52.614;13.496;2023-06-22T05:04:00;5.57;;;5.07;;
26696;SDS011;14312;52.614;13.496;2023-06-22T05:06:48;4.78;;;4.35;;
26696;SDS011;14312;52.614;13.496;2023-06-22T05:09:34;4.93;;;4.53;;
26696;SDS011;14312;52.614;13.496;2023-06-22T05:12:20;4.05;;;3.75;;
26696;SDS011;14312;52.614;13.496;2023-06-22T05:15:07;6.22;;;4.28;;
26696;SDS011;14312;52.614;13.496;2023-06-22T05:17:53;4.15;;;3.60;;
26696;SDS011;14312;52.614;13.496;2023-06-22T05:20:39;4.13;;;3.72;;
26696;SDS011;14312;52.614;13.496;2023-06-22T05:23:25;4.07;;;3.20;;
26696;SDS011;14312;52.614;13.496;2023-06-22T05:26:11;3.72;;;3.35;;
26696;SDS011;14312;52.614;13.496;2023-06-22T05:28:57;3.80;;;3.50;;
26696;SDS011;14312;52.614;13.496;2023-06-22T05:31:44;3.20;;;3.00;;
26696;SDS011;14312;52.614;13.496;2023-06-22T05:34:30;2.97;;;2.78;;
26696;SDS011;14312;52.614;13.496;2023-06-22T05:37:16;2.70;;;2.50;;
26696;SDS011;14312;52.614;13.496;2023-06-22T05:40:02;3.05;;;2.83;;
26696;SDS011;14312;52.614;13.496;2023-06-22T05:42:49;2.60;;;2.40;;
26696;SDS011;14312;52.614;13.496;2023-06-22T05:45:34;2.38;;;2.28;;
26696;SDS011;14312;52.614;13.496;2023-06-22T05:48:20;2.80;;;2.60;;
26696;SDS011;14312;52.614;13.496;2023-06-22T05:51:06;4.75;;;2.40;;
26696;SDS011;14312;52.614;13.496;2023-06-22T05:53:53;2.65;;;2.45;;
26696;SDS011;14312;52.614;13.496;2023-06-22T05:56:39;2.53;;;2.33;;
26696;SDS011;14312;52.614;13.496;2023-06-22T05:59:25;2.60;;;2.40;;
26696;SDS011;14312;52.614;13.496;2023-06-22T06:02:10;2.60;;;2.40;;
26696;SDS011;14312;52.614;13.496;2023-06-22T06:04:56;3.00;;;2.33;;
26696;SDS011;14312;52.614;13.496;2023-06-22T06:07:42;3.03;;;2.33;;
26696;SDS011;14312;52.614;13.496;2023-06-22T06:10:28;2.80;;;2.60;;
26696;SDS011;14312;52.614;13.496;2023-06-22T06:13:17;2.60;;;2.40;;
26696;SDS011;14312;52.614;13.496;2023-06-22T06:16:04;2.47;;;2.28;;
26696;SDS011;14312;52.614;13.496;2023-06-22T06:18:50;2.90;;;2.70;;
26696;SDS011;14312;52.614;13.496;2023-06-22T06:21:38;2.80;;;2.60;;
26696;SDS011;14312;52.614;13.496;2023-06-22T06:24:24;2.72;;;2.53;;
26696;SDS011;14312;52.614;13.496;2023-06-22T06:27:10;2.50;;;2.30;;
26696;SDS011;14312;52.614;13.496;2023-06-22T06:29:56;2.75;;;2.35;;
26696;SDS011;14312;52.614;13.496;2023-06-22T06:32:43;3.08;;;2.30;;
26696;SDS011;14312;52.614;13.496;2023-06-22T06:35:31;2.45;;;2.25;;
26696;SDS011;14312;52.614;13.496;2023-06-22T06:38:17;2.83;;;2.63;;
26696;SDS011;14312;52.614;13.496;2023-06-22T06:41:03;2.58;;;2.38;;
26696;SDS011;14312;52.614;13.496;2023-06-22T06:43:48;2.50;;;2.30;;
26696;SDS011;14312;52.614;13.496;2023-06-22T06:46:34;2.40;;;2.20;;
26696;SDS011;14312;52.614;13.496;2023-06-22T06:49:20;2.20;;;2.03;;
26696;SDS011;14312;52.614;13.496;2023-06-22T06:52:06;3.35;;;2.00;;
26696;SDS011;14312;52.614;13.496;2023-06-22T06:54:52;2.42;;;2.22;;
26696;SDS011;14312;52.614;13.496;2023-06-22T06:57:38;2.42;;;2.22;;
26696;SDS011;14312;52.614;13.496;2023-06-22T07:00:24;2.08;;;1.98;;
26696;SDS011;14312;52.614;13.496;2023-06-22T07:03:10;2.47;;;2.20;;
26696;SDS011;14312;52.614;13.496;2023-06-22T07:05:56;3.00;;;2.08;;
26696;SDS011;14312;52.614;13.496;2023-06-22T07:08:42;2.80;;;2.40;;
26696;SDS011;14312;52.614;13.496;2023-06-22T07:11:28;2.65;;;2.38;;
26696;SDS011;14312;52.614;13.496;2023-06-22T07:14:15;2.00;;;1.90;;
26696;SDS011;14312;52.614;13.496;2023-06-22T07:17:01;2.40;;;2.20;;
26696;SDS011;14312;52.614;13.496;2023-06-22T07:19:46;2.45;;;2.25;;
26696;SDS011;14312;52.614;13.496;2023-06-22T07:22:32;2.40;;;2.20;;
26696;SDS011;14312;52.614;13.496;2023-06-22T07:25:18;2.20;;;2.00;;
26696;SDS011;14312;52.614;13.496;2023-06-22T07:28:05;2.30;;;2.08;;
26696;SDS011;14312;52.614;13.496;2023-06-22T07:30:52;2.38;;;2.17;;
26696;SDS011;14312;52.614;13.496;2023-06-22T07:33:38;2.10;;;2.00;;
26696;SDS011;14312;52.614;13.496;2023-06-22T07:36:24;3.40;;;1.92;;
26696;SDS011;14312;52.614;13.496;2023-06-22T07:39:10;2.45;;;2.25;;
26696;SDS011;14312;52.614;13.496;2023-06-22T07:41:57;2.40;;;2.20;;
26696;SDS011;14312;52.614;13.496;2023-06-22T07:44:43;1.80;;;1.70;;
26696;SDS011;14312;52.614;13.496;2023-06-22T07:47:29;2.13;;;1.70;;
26696;SDS011;14312;52.614;13.496;2023-06-22T07:50:15;2.78;;;1.40;;
26696;SDS011;14312;52.614;13.496;2023-06-22T07:53:01;1.85;;;1.75;;
26696;SDS011;14312;52.614;13.496;2023-06-22T07:55:47;1.60;;;1.50;;
26696;SDS011;14312;52.614;13.496;2023-06-22T07:58:33;2.10;;;1.90;;
26696;SDS011;14312;52.614;13.496;2023-06-22T08:01:19;1.60;;;1.50;;
26696;SDS011;14312;52.614;13.496;2023-06-22T08:04:06;1.73;;;1.63;;
26696;SDS011;14312;52.614;13.496;2023-06-22T08:06:52;2.25;;;1.83;;
26696;SDS011;14312;52.614;13.496;2023-06-22T08:09:38;2.30;;;2.10;;
26696;SDS011;14312;52.614;13.496;2023-06-22T08:12:24;1.98;;;1.70;;
26696;SDS011;14312;52.614;13.496;2023-06-22T08:15:10;2.20;;;1.92;;
26696;SDS011;14312;52.614;13.496;2023-06-22T08:17:56;1.90;;;1.80;;
26696;SDS011;14312;52.614;13.496;2023-06-22T08:20:43;2.10;;;1.90;;
26696;SDS011;14312;52.614;13.496;2023-06-22T08:23:29;2.15;;;2.00;;
26696;SDS011;14312;52.614;13.496;2023-06-22T08:26:15;2.00;;;1.80;;
26696;SDS011;14312;52.614;13.496;2023-06-22T08:29:01;2.05;;;1.95;;
26696;SDS011;14312;52.614;13.496;2023-06-22T08:31:48;1.40;;;1.30;;
26696;SDS011;14312;52.614;13.496;2023-06-22T08:34:34;1.60;;;1.50;;
26696;SDS011;14312;52.614;13.496;2023-06-22T08:37:20;1.90;;;1.70;;
26696;SDS011;14312;52.614;13.496;2023-06-22T08:40:07;1.80;;;1.70;;
26696;SDS011;14312;52.614;13.496;2023-06-22T08:42:55;1.65;;;1.55;;
26696;SDS011;14312;52.614;13.496;2023-06-22T08:45:41;2.28;;;2.08;;
26696;SDS011;14312;52.614;13.496;2023-06-22T08:48:27;2.05;;;1.90;;
26696;SDS011;14312;52.614;13.496;2023-06-22T08:51:13;2.47;;;1.90;;
26696;SDS011;14312;52.614;13.496;2023-06-22T08:53:59;1.83;;;1.73;;
26696;SDS011;14312;52.614;13.496;2023-06-22T08:56:45;1.90;;;1.80;;
26696;SDS011;14312;52.614;13.496;2023-06-22T08:59:31;1.90;;;1.80;;
26696;SDS011;14312;52.614;13.496;2023-06-22T09:02:17;2.10;;;2.00;;
26696;SDS011;14312;52.614;13.496;2023-06-22T09:05:03;2.28;;;2.08;;
26696;SDS011;14312;52.614;13.496;2023-06-22T09:07:50;2.00;;;1.90;;
26696;SDS011;14312;52.614;13.496;2023-06-22T09:10:36;2.35;;;2.20;;
26696;SDS011;14312;52.614;13.496;2023-06-22T09:13:22;2.42;;;2.22;;
26696;SDS011;14312;52.614;13.496;2023-06-22T09:16:08;1.77;;;1.67;;
26696;SDS011;14312;52.614;13.496;2023-06-22T09:18:54;2.10;;;2.00;;
26696;SDS011;14312;52.614;13.496;2023-06-22T09:21:40;2.22;;;2.03;;
26696;SDS011;14312;52.614;13.496;2023-06-22T09:24:26;2.17;;;2.00;;
26696;SDS011;14312;52.614;13.496;2023-06-22T09:27:12;2.15;;;2.05;;
26696;SDS011;14312;52.614;13.496;2023-06-22T09:29:58;2.00;;;1.90;;
26696;SDS011;14312;52.614;13.496;2023-06-22T09:32:44;2.17;;;1.98;;
26696;SDS011;14312;52.614;13.496;2023-06-22T09:35:30;2.42;;;1.90;;
26696;SDS011;14312;52.614;13.496;2023-06-22T09:38:16;2.10;;;2.00;;
26696;SDS011;14312;52.614;13.496;2023-06-22T09:41:03;2.03;;;1.88;;
26696;SDS011;14312;52.614;13.496;2023-06-22T09:43:49;2.05;;;1.95;;
26696;SDS011;14312;52.614;13.496;2023-06-22T09:46:35;1.90;;;1.80;;
26696;SDS011;14312;52.614;13.496;2023-06-22T09:49:24;2.05;;;1.90;;
26696;SDS011;14312;52.614;13.496;2023-06-22T09:52:10;2.45;;;2.25;;
26696;SDS011;14312;52.614;13.496;2023-06-22T09:54:57;2.50;;;2.30;;
26696;SDS011;14312;52.614;13.496;2023-06-22T09:57:43;2.53;;;2.33;;
26696;SDS011;14312;52.614;13.496;2023-06-22T10:00:29;2.17;;;2.00;;
26696;SDS011;14312;52.614;13.496;2023-06-22T10:03:15;2.47;;;2.20;;
26696;SDS011;14312;52.614;13.496;2023-06-22T10:06:01;1.90;;;1.80;;
26696;SDS011;14312;52.614;13.496;2023-06-22T10:08:47;2.10;;;2.00;;
26696;SDS011;14312;52.614;13.496;2023-06-22T10:11:36;2.75;;;2.55;;
26696;SDS011;14312;52.614;13.496;2023-06-22T10:14:22;2.47;;;2.30;;
26696;SDS011;14312;52.614;13.496;2023-06-22T10:17:09;2.47;;;2.28;;
26696;SDS011;14312;52.614;13.496;2023-06-22T10:19:55;2.13;;;2.03;;
26696;SDS011;14312;52.614;13.496;2023-06-22T10:22:42;2.80;;;2.60;;
26696;SDS011;14312;52.614;13.496;2023-06-22T10:25:29;2.33;;;2.17;;
26696;SDS011;14312;52.614;13.496;2023-06-22T10:28:15;2.30;;;2.17;;
26696;SDS011;14312;52.614;13.496;2023-06-22T10:31:02;3.20;;;2.90;;
26696;SDS011;14312;52.614;13.496;2023-06-22T10:33:48;2.70;;;2.05;;
26696;SDS011;14312;52.614;13.496;2023-06-22T10:36:35;2.05;;;1.95;;
26696;SDS011;14312;52.614;13.496;2023-06-22T10:39:21;2.10;;;2.00;;
26696;SDS011;14312;52.614;13.496;2023-06-22T10:42:07;2.17;;;1.98;;
26696;SDS011;14312;52.614;13.496;2023-06-22T10:44:54;2.20;;;1.85;;
26696;SDS011;14312;52.614;13.496;2023-06-22T10:47:40;1.98;;;1.88;;
26696;SDS011;14312;52.614;13.496;2023-06-22T10:50:27;2.40;;;2.20;;
26696;SDS011;14312;52.614;13.496;2023-06-22T10:53:15;2.25;;;2.05;;
26696;SDS011;14312;52.614;13.496;2023-06-22T10:56:01;2.38;;;1.83;;
26696;SDS011;14312;52.614;13.496;2023-06-22T10:58:48;1.80;;;1.70;;
26696;SDS011;14312;52.614;13.496;2023-06-22T11:01:34;1.90;;;1.80;;
26696;SDS011;14312;52.614;13.496;2023-06-22T11:04:20;2.55;;;2.35;;
26696;SDS011;14312;52.614;13.496;2023-06-22T11:07:06;2.10;;;1.90;;
26696;SDS011;14312;52.614;13.496;2023-06-22T11:09:52;2.15;;;1.98;;
26696;SDS011;14312;52.614;13.496;2023-06-22T11:12:38;2.00;;;1.90;;
26696;SDS011;14312;52.614;13.496;2023-06-22T11:15:24;2.05;;;1.95;;
26696;SDS011;14312;52.614;13.496;2023-06-22T11:18:10;2.58;;;2.38;;
26696;SDS011;14312;52.614;13.496;2023-06-22T11:20:59;2.10;;;2.00;;
26696;SDS011;14312;52.614;13.496;2023-06-22T11:23:45;2.35;;;2.15;;
26696;SDS011;14312;52.614;13.496;2023-06-22T11:26:31;2.35;;;2.13;;
26696;SDS011;14312;52.614;13.496;2023-06-22T11:29:17;2.15;;;2.05;;
26696;SDS011;14312;52.614;13.496;2023-06-22T11:32:06;2.53;;;2.33;;
26696;SDS011;14312;52.614;13.496;2023-06-22T11:34:52;2.00;;;1.90;;
26696;SDS011;14312;52.614;13.496;2023-06-22T11:37:38;2.10;;;2.00;;
26696;SDS011;14312;52.614;13.496;2023-06-22T11:40:24;2.58;;;2.38;;
26696;SDS011;14312;52.614;13.496;2023-06-22T11:43:10;2.28;;;2.08;;
26696;SDS011;14312;52.614;13.496;2023-06-22T11:45:56;2.13;;;2.03;;
26696;SDS011;14312;52.614;13.496;2023-06-22T11:48:43;2.17;;;2.03;;
26696;SDS011;14312;52.614;13.496;2023-06-22T11:51:29;1.95;;;1.85;;
26696;SDS011;14312;52.614;13.496;2023-06-22T11:54:17;2.63;;;2.42;;
26696;SDS011;14312;52.614;13.496;2023-06-22T11:57:03;2.80;;;2.60;;
26696;SDS011;14312;52.614;13.496;2023-06-22T11:59:49;2.10;;;2.00;;
26696;SDS011;14312;52.614;13.496;2023-06-22T12:02:35;2.35;;;2.20;;
26696;SDS011;14312;52.614;13.496;2023-06-22T12:05:21;3.40;;;3.10;;
26696;SDS011;14312;52.614;13.496;2023-06-22T12:08:07;2.53;;;2.33;;
26696;SDS011;14312;52.614;13.496;2023-06-22T12:10:53;2.45;;;2.25;;
26696;SDS011;14312;52.614;13.496;2023-06-22T12:13:39;2.30;;;2.20;;
26696;SDS011;14312;52.614;13.496;2023-06-22T12:16:25;2.50;;;2.40;;
26696;SDS011;14312;52.614;13.496;2023-06-22T12:19:11;2.65;;;2.45;;
26696;SDS011;14312;52.614;13.496;2023-06-22T12:21:58;2.47;;;2.03;;
26696;SDS011;14312;52.614;13.496;2023-06-22T12:24:43;2.33;;;2.13;;
26696;SDS011;14312;52.614;13.496;2023-06-22T12:27:29;2.70;;;2.50;;
26696;SDS011;14312;52.614;13.496;2023-06-22T12:30:16;2.58;;;2.38;;
26696;SDS011;14312;52.614;13.496;2023-06-22T12:33:02;2.28;;;2.17;;
26696;SDS011;14312;52.614;13.496;2023-06-22T12:35:48;2.58;;;2.40;;
26696;SDS011;14312;52.614;13.496;2023-06-22T12:38:35;3.33;;;3.03;;
26696;SDS011;14312;52.614;13.496;2023-06-22T12:41:21;2.67;;;2.47;;
26696;SDS011;14312;52.614;13.496;2023-06-22T12:44:08;3.60;;;2.35;;
26696;SDS011;14312;52.614;13.496;2023-06-22T12:46:54;2.40;;;2.20;;
26696;SDS011;14312;52.614;13.496;2023-06-22T12:49:40;2.22;;;2.03;;
26696;SDS011;14312;52.614;13.496;2023-06-22T12:52:26;2.53;;;2.33;;
26696;SDS011;14312;52.614;13.496;2023-06-22T12:55:12;2.40;;;2.30;;
26696;SDS011;14312;52.614;13.496;2023-06-22T12:57:58;2.42;;;2.22;;
26696;SDS011;14312;52.614;13.496;2023-06-22T13:00:44;2.55;;;2.35;;
26696;SDS011;14312;52.614;13.496;2023-06-22T13:03:30;2.15;;;2.05;;
26696;SDS011;14312;52.614;13.496;2023-06-22T13:06:16;2.55;;;2.35;;
26696;SDS011;14312;52.614;13.496;2023-06-22T13:09:02;2.30;;;2.20;;
26696;SDS011;14312;52.614;13.496;2023-06-22T13:11:50;2.58;;;2.40;;
26696;SDS011;14312;52.614;13.496;2023-06-22T13:14:37;2.63;;;2.50;;
26696;SDS011;14312;52.614;13.496;2023-06-22T13:17:24;2.65;;;2.45;;
26696;SDS011;14312;52.614;13.496;2023-06-22T13:20:10;3.50;;;3.20;;
26696;SDS011;14312;52.614;13.496;2023-06-22T13:22:56;2.42;;;2.22;;
26696;SDS011;14312;52.614;13.496;2023-06-22T13:25:42;2.65;;;2.45;;
26696;SDS011;14312;52.614;13.496;2023-06-22T13:28:28;2.70;;;2.50;;
26696;SDS011;14312;52.614;13.496;2023-06-22T13:31:15;2.70;;;2.50;;
26696;SDS011;14312;52.614;13.496;2023-06-22T13:34:02;2.90;;;2.70;;
26696;SDS011;14312;52.614;13.496;2023-06-22T13:36:48;2.60;;;2.50;;
26696;SDS011;14312;52.614;13.496;2023-06-22T13:39:34;2.90;;;2.70;;
26696;SDS011;14312;52.614;13.496;2023-06-22T13:42:20;2.92;;;2.63;;
26696;SDS011;14312;52.614;13.496;2023-06-22T13:45:06;2.50;;;2.40;;
26696;SDS011;14312;52.614;13.496;2023-06-22T13:47:52;2.83;;;2.63;;
26696;SDS011;14312;52.614;13.496;2023-06-22T13:50:38;2.90;;;2.70;;
26696;SDS011;14312;52.614;13.496;2023-06-22T13:53:24;2.83;;;2.63;;
26696;SDS011;14312;52.614;13.496;2023-06-22T13:56:12;3.03;;;2.83;;
26696;SDS011;14312;52.614;13.496;2023-06-22T13:58:57;2.88;;;2.67;;
26696;SDS011;14312;52.614;13.496;2023-06-22T14:01:43;2.95;;;2.75;;
26696;SDS011;14312;52.614;13.496;2023-06-22T14:04:29;2.65;;;2.45;;
26696;SDS011;14312;52.614;13.496;2023-06-22T14:07:15;2.88;;;2.60;;
26696;SDS011;14312;52.614;13.496;2023-06-22T14:10:01;2.65;;;2.45;;
26696;SDS011;14312;52.614;13.496;2023-06-22T14:12:47;2.90;;;2.70;;
26696;SDS011;14312;52.614;13.496;2023-06-22T14:15:33;2.80;;;2.60;;
26696;SDS011;14312;52.614;13.496;2023-06-22T14:18:19;2.90;;;2.70;;
26696;SDS011;14312;52.614;13.496;2023-06-22T14:21:05;2.50;;;2.40;;
26696;SDS011;14312;52.614;13.496;2023-06-22T14:23:51;2.90;;;2.70;;
26696;SDS011;14312;52.614;13.496;2023-06-22T14:26:37;3.55;;;2.60;;
26696;SDS011;14312;52.614;13.496;2023-06-22T14:29:23;2.78;;;2.58;;
26696;SDS011;14312;52.614;13.496;2023-06-22T14:32:09;2.80;;;2.60;;
26696;SDS011;14312;52.614;13.496;2023-06-22T14:34:55;2.85;;;2.65;;
26696;SDS011;14312;52.614;13.496;2023-06-22T14:37:41;3.30;;;3.10;;
26696;SDS011;14312;52.614;13.496;2023-06-22T14:40:27;2.80;;;2.60;;
26696;SDS011;14312;52.614;13.496;2023-06-22T14:43:13;3.05;;;2.85;;
26696;SDS011;14312;52.614;13.496;2023-06-22T14:45:59;2.70;;;2.50;;
26696;SDS011;14312;52.614;13.496;2023-06-22T14:48:46;2.90;;;2.70;;
26696;SDS011;14312;52.614;13.496;2023-06-22T14:51:32;3.13;;;2.92;;
26696;SDS011;14312;52.614;13.496;2023-06-22T14:54:18;2.60;;;2.40;;
26696;SDS011;14312;52.614;13.496;2023-06-22T14:57:04;2.88;;;2.67;;
26696;SDS011;14312;52.614;13.496;2023-06-22T14:59:50;2.72;;;2.53;;
26696;SDS011;14312;52.614;13.496;2023-06-22T15:02:36;2.83;;;2.63;;
26696;SDS011;14312;52.614;13.496;2023-06-22T15:05:22;2.85;;;2.65;;
26696;SDS011;14312;52.614;13.496;2023-06-22T15:08:09;2.60;;;2.50;;
26696;SDS011;14312;52.614;13.496;2023-06-22T15:10:57;2.80;;;2.60;;
26696;SDS011;14312;52.614;13.496;2023-06-22T15:13:46;2.85;;;2.65;;
26696;SDS011;14312;52.614;13.496;2023-06-22T15:16:32;3.10;;;2.80;;
26696;SDS011;14312;52.614;13.496;2023-06-22T15:19:18;3.00;;;2.80;;
26696;SDS011;14312;52.614;13.496;2023-06-22T15:22:04;2.75;;;2.55;;
26696;SDS011;14312;52.614;13.496;2023-06-22T15:24:51;3.05;;;2.85;;
26696;SDS011;14312;52.614;13.496;2023-06-22T15:27:43;2.88;;;2.67;;
26696;SDS011;14312;52.614;13.496;2023-06-22T15:30:29;3.03;;;2.83;;
26696;SDS011;14312;52.614;13.496;2023-06-22T15:33:16;4.15;;;2.58;;
26696;SDS011;14312;52.614;13.496;2023-06-22T15:36:02;2.80;;;2.60;;
26696;SDS011;14312;52.614;13.496;2023-06-22T15:38:49;2.83;;;2.63;;
26696;SDS011;14312;52.614;13.496;2023-06-22T15:41:35;3.08;;;2.88;;
26696;SDS011;14312;52.614;13.496;2023-06-22T15:44:24;3.00;;;2.80;;
26696;SDS011;14312;52.614;13.496;2023-06-22T15:47:10;3.00;;;2.80;;
26696;SDS011;14312;52.614;13.496;2023-06-22T15:49:56;2.95;;;2.75;;
26696;SDS011;14312;52.614;13.496;2023-06-22T15:52:42;3.28;;;3.08;;
26696;SDS011;14312;52.614;13.496;2023-06-22T15:55:33;3.08;;;2.88;;
26696;SDS011;14312;52.614;13.496;2023-06-22T15:58:20;3.10;;;2.90;;
26696;SDS011;14312;52.614;13.496;2023-06-22T16:01:09;3.00;;;2.80;;
26696;SDS011;14312;52.614;13.496;2023-06-22T16:03:55;2.90;;;2.70;;
26696;SDS011;14312;52.614;13.496;2023-06-22T16:06:41;2.85;;;2.65;;
26696;SDS011;14312;52.614;13.496;2023-06-22T16:09:27;2.83;;;2.63;;
26696;SDS011;14312;52.614;13.496;2023-06-22T16:12:15;2.65;;;2.50;;
26696;SDS011;14312;52.614;13.496;2023-06-22T16:15:01;2.67;;;2.47;;
26696;SDS011;14312;52.614;13.496;2023-06-22T16:17:51;2.60;;;2.45;;
26696;SDS011;14312;52.614;13.496;2023-06-22T16:20:37;2.92;;;2.67;;
26696;SDS011;14312;52.614;13.496;2023-06-22T16:23:23;2.90;;;2.70;;
26696;SDS011;14312;52.614;13.496;2023-06-22T16:26:09;2.58;;;2.38;;
26696;SDS011;14312;52.614;13.496;2023-06-22T16:28:56;2.85;;;2.60;;
26696;SDS011;14312;52.614;13.496;2023-06-22T16:31:41;2.95;;;2.75;;